sensor_id;sensor_type;location;lat;lon;timestamp;P1;durP1;ratioP1;P2;durP2;ratioP2
64282;SDS011;50497;50.720;-2.084;2022-09-21T00:03:33;6.93;;;2.78;;
64282;SDS011;50497;50.720;-2.084;2022-09-21T00:06:06;7.40;;;3.00;;
64282;SDS011;50497;50.720;-2.084;2022-09-21T00:08:33;6.60;;;2.70;;
64282;SDS011;50497;50.720;-2.084;2022-09-21T00:11:00;7.97;;;2.95;;
64282;SDS011;50497;50.720;-2.084;2022-09-21T00:13:27;7.68;;;3.05;;
64282;SDS011;50497;50.720;-2.084;2022-09-21T00:15:55;6.07;;;2.53;;
64282;SDS011;50497;50.720;-2.084;2022-09-21T00:18:24;7.20;;;2.67;;
64282;SDS011;50497;50.720;-2.084;2022-09-21T00:20:53;6.57;;;3.05;;
64282;SDS011;50497;50.720;-2.084;2022-09-21T00:23:19;7.18;;;2.92;;
64282;SDS011;50497;50.720;-2.084;2022-09-21T00:25:48;8.55;;;3.20;;
64282;SDS011;50497;50.720;-2.084;2022-09-21T00:28:14;8.18;;;3.20;;
64282;SDS011;50497;50.720;-2.084;2022-09-21T00:30:40;6.20;;;2.90;;
64282;SDS011;50497;50.720;-2.084;2022-09-21T00:33:05;6.32;;;2.90;;
64282;SDS011;50497;50.720;-2.084;2022-09-21T00:35:31;7.63;;;3.20;;
64282;SDS011;50497;50.720;-2.084;2022-09-21T00:38:00;8.27;;;3.30;;
64282;SDS011;50497;50.720;-2.084;2022-09-21T00:40:27;7.43;;;3.30;;
64282;SDS011;50497;50.720;-2.084;2022-09-21T00:43:12;7.63;;;3.40;;
64282;SDS011;50497;50.720;-2.084;2022-09-21T00:45:38;8.77;;;3.30;;
64282;SDS011;50497;50.720;-2.084;2022-09-21T00:48:04;6.75;;;3.05;;
64282;SDS011;50497;50.720;-2.084;2022-09-21T00:50:30;7.80;;;3.22;;
64282;SDS011;50497;50.720;-2.084;2022-09-21T00:52:57;8.52;;;3.72;;
64282;SDS011;50497;50.720;-2.084;2022-09-21T00:58:08;7.78;;;3.75;;
64282;SDS011;50497;50.720;-2.084;2022-09-21T01:00:37;8.50;;;3.53;;
64282;SDS011;50497;50.720;-2.084;2022-09-21T01:03:04;8.30;;;3.85;;
64282;SDS011;50497;50.720;-2.084;2022-09-21T01:05:30;7.55;;;3.60;;
64282;SDS011;50497;50.720;-2.084;2022-09-21T01:07:57;7.45;;;3.42;;
64282;SDS011;50497;50.720;-2.084;2022-09-21T01:10:26;7.60;;;3.33;;
64282;SDS011;50497;50.720;-2.084;2022-09-21T01:13:28;7.35;;;3.60;;
64282;SDS011;50497;50.720;-2.084;2022-09-21T01:16:00;8.20;;;3.38;;
64282;SDS011;50497;50.720;-2.084;2022-09-21T01:18:37;7.50;;;2.95;;
64282;SDS011;50497;50.720;-2.084;2022-09-21T01:21:30;7.38;;;3.17;;
64282;SDS011;50497;50.720;-2.084;2022-09-21T01:24:16;8.43;;;3.17;;
64282;SDS011;50497;50.720;-2.084;2022-09-21T01:32:08;8.70;;;3.90;;
64282;SDS011;50497;50.720;-2.084;2022-09-21T01:34:56;9.10;;;3.90;;
64282;SDS011;50497;50.720;-2.084;2022-09-21T01:37:52;8.63;;;4.10;;
64282;SDS011;50497;50.720;-2.084;2022-09-21T01:40:24;7.95;;;3.30;;
64282;SDS011;50497;50.720;-2.084;2022-09-21T01:42:55;8.00;;;3.15;;
64282;SDS011;50497;50.720;-2.084;2022-09-21T01:45:24;6.50;;;2.90;;
64282;SDS011;50497;50.720;-2.084;2022-09-21T01:47:55;7.53;;;2.90;;
64282;SDS011;50497;50.720;-2.084;2022-09-21T01:50:23;6.20;;;2.60;;
64282;SDS011;50497;50.720;-2.084;2022-09-21T01:53:02;7.38;;;2.70;;
64282;SDS011;50497;50.720;-2.084;2022-09-21T02:01:28;7.47;;;3.00;;
64282;SDS011;50497;50.720;-2.084;2022-09-21T02:04:00;7.47;;;3.00;;
64282;SDS011;50497;50.720;-2.084;2022-09-21T02:08:57;6.90;;;3.00;;
64282;SDS011;50497;50.720;-2.084;2022-09-21T02:11:23;6.28;;;2.88;;
64282;SDS011;50497;50.720;-2.084;2022-09-21T02:13:49;8.10;;;3.35;;
64282;SDS011;50497;50.720;-2.084;2022-09-21T02:16:35;7.35;;;3.53;;
64282;SDS011;50497;50.720;-2.084;2022-09-21T02:19:09;7.75;;;3.40;;
64282;SDS011;50497;50.720;-2.084;2022-09-21T02:24:46;8.77;;;3.60;;
64282;SDS011;50497;50.720;-2.084;2022-09-21T02:30:19;8.65;;;3.72;;
64282;SDS011;50497;50.720;-2.084;2022-09-21T02:36:07;9.43;;;3.50;;
64282;SDS011;50497;50.720;-2.084;2022-09-21T02:41:18;8.18;;;3.80;;
64282;SDS011;50497;50.720;-2.084;2022-09-21T02:43:54;6.80;;;3.38;;
64282;SDS011;50497;50.720;-2.084;2022-09-21T02:46:32;8.48;;;3.50;;
64282;SDS011;50497;50.720;-2.084;2022-09-21T02:49:05;7.68;;;3.47;;
64282;SDS011;50497;50.720;-2.084;2022-09-21T02:51:44;8.57;;;3.70;;
64282;SDS011;50497;50.720;-2.084;2022-09-21T02:54:13;9.25;;;3.30;;
64282;SDS011;50497;50.720;-2.084;2022-09-21T02:56:41;7.10;;;3.33;;
64282;SDS011;50497;50.720;-2.084;2022-09-21T02:59:10;8.20;;;3.40;;
64282;SDS011;50497;50.720;-2.084;2022-09-21T03:01:37;7.35;;;3.35;;
64282;SDS011;50497;50.720;-2.084;2022-09-21T03:04:04;7.28;;;3.30;;
64282;SDS011;50497;50.720;-2.084;2022-09-21T03:06:30;7.70;;;3.58;;
64282;SDS011;50497;50.720;-2.084;2022-09-21T03:08:55;10.13;;;3.60;;
64282;SDS011;50497;50.720;-2.084;2022-09-21T03:11:22;8.00;;;3.53;;
64282;SDS011;50497;50.720;-2.084;2022-09-21T03:13:52;9.73;;;3.45;;
64282;SDS011;50497;50.720;-2.084;2022-09-21T03:16:17;7.57;;;3.30;;
64282;SDS011;50497;50.720;-2.084;2022-09-21T03:18:43;8.07;;;3.58;;
64282;SDS011;50497;50.720;-2.084;2022-09-21T03:21:09;7.57;;;3.30;;
64282;SDS011;50497;50.720;-2.084;2022-09-21T03:23:36;7.80;;;3.45;;
64282;SDS011;50497;50.720;-2.084;2022-09-21T03:26:01;7.30;;;3.30;;
64282;SDS011;50497;50.720;-2.084;2022-09-21T03:28:27;7.63;;;3.22;;
64282;SDS011;50497;50.720;-2.084;2022-09-21T03:30:52;7.95;;;3.50;;
64282;SDS011;50497;50.720;-2.084;2022-09-21T03:33:18;7.63;;;3.67;;
64282;SDS011;50497;50.720;-2.084;2022-09-21T03:35:44;7.03;;;3.45;;
64282;SDS011;50497;50.720;-2.084;2022-09-21T03:38:12;8.43;;;3.60;;
64282;SDS011;50497;50.720;-2.084;2022-09-21T03:40:38;8.32;;;3.67;;
64282;SDS011;50497;50.720;-2.084;2022-09-21T03:43:03;8.38;;;3.35;;
64282;SDS011;50497;50.720;-2.084;2022-09-21T03:45:29;8.98;;;3.47;;
64282;SDS011;50497;50.720;-2.084;2022-09-21T03:47:58;8.85;;;3.58;;
64282;SDS011;50497;50.720;-2.084;2022-09-21T03:50:25;8.82;;;3.75;;
64282;SDS011;50497;50.720;-2.084;2022-09-21T03:52:52;8.50;;;3.72;;
64282;SDS011;50497;50.720;-2.084;2022-09-21T03:55:18;8.20;;;3.65;;
64282;SDS011;50497;50.720;-2.084;2022-09-21T03:57:44;8.82;;;3.88;;
64282;SDS011;50497;50.720;-2.084;2022-09-21T04:00:10;9.98;;;3.90;;
64282;SDS011;50497;50.720;-2.084;2022-09-21T04:02:36;9.93;;;3.85;;
64282;SDS011;50497;50.720;-2.084;2022-09-21T04:05:07;8.30;;;3.85;;
64282;SDS011;50497;50.720;-2.084;2022-09-21T04:07:34;8.48;;;3.72;;
64282;SDS011;50497;50.720;-2.084;2022-09-21T04:10:00;8.80;;;3.65;;
64282;SDS011;50497;50.720;-2.084;2022-09-21T04:12:27;7.57;;;3.30;;
64282;SDS011;50497;50.720;-2.084;2022-09-21T04:14:53;8.38;;;3.50;;
64282;SDS011;50497;50.720;-2.084;2022-09-21T04:17:19;7.82;;;3.78;;
64282;SDS011;50497;50.720;-2.084;2022-09-21T04:19:44;8.88;;;3.47;;
64282;SDS011;50497;50.720;-2.084;2022-09-21T04:22:10;9.93;;;3.72;;
64282;SDS011;50497;50.720;-2.084;2022-09-21T04:24:36;8.20;;;3.47;;
64282;SDS011;50497;50.720;-2.084;2022-09-21T04:27:08;7.30;;;3.40;;
64282;SDS011;50497;50.720;-2.084;2022-09-21T04:29:34;8.98;;;3.78;;
64282;SDS011;50497;50.720;-2.084;2022-09-21T04:32:04;9.63;;;3.67;;
64282;SDS011;50497;50.720;-2.084;2022-09-21T04:34:29;8.32;;;3.45;;
64282;SDS011;50497;50.720;-2.084;2022-09-21T04:36:55;8.70;;;3.72;;
64282;SDS011;50497;50.720;-2.084;2022-09-21T04:39:22;8.98;;;3.65;;
64282;SDS011;50497;50.720;-2.084;2022-09-21T04:41:48;8.90;;;4.03;;
64282;SDS011;50497;50.720;-2.084;2022-09-21T04:44:14;8.68;;;3.78;;
64282;SDS011;50497;50.720;-2.084;2022-09-21T04:46:40;8.02;;;3.80;;
64282;SDS011;50497;50.720;-2.084;2022-09-21T04:49:06;10.20;;;3.85;;
64282;SDS011;50497;50.720;-2.084;2022-09-21T04:51:32;7.97;;;3.45;;
64282;SDS011;50497;50.720;-2.084;2022-09-21T04:53:58;8.35;;;3.70;;
64282;SDS011;50497;50.720;-2.084;2022-09-21T04:56:24;11.02;;;4.18;;
64282;SDS011;50497;50.720;-2.084;2022-09-21T04:58:50;9.38;;;4.00;;
64282;SDS011;50497;50.720;-2.084;2022-09-21T05:01:15;7.47;;;3.47;;
64282;SDS011;50497;50.720;-2.084;2022-09-21T05:03:40;10.43;;;3.67;;
64282;SDS011;50497;50.720;-2.084;2022-09-21T05:06:06;8.98;;;3.60;;
64282;SDS011;50497;50.720;-2.084;2022-09-21T05:08:33;8.18;;;3.55;;
64282;SDS011;50497;50.720;-2.084;2022-09-21T05:11:17;8.88;;;3.45;;
64282;SDS011;50497;50.720;-2.084;2022-09-21T05:13:43;8.18;;;3.40;;
64282;SDS011;50497;50.720;-2.084;2022-09-21T05:16:09;7.97;;;3.53;;
64282;SDS011;50497;50.720;-2.084;2022-09-21T05:18:35;7.88;;;3.55;;
64282;SDS011;50497;50.720;-2.084;2022-09-21T05:21:02;7.55;;;3.33;;
64282;SDS011;50497;50.720;-2.084;2022-09-21T05:23:29;8.43;;;3.78;;
64282;SDS011;50497;50.720;-2.084;2022-09-21T05:25:55;8.95;;;3.85;;
64282;SDS011;50497;50.720;-2.084;2022-09-21T05:28:21;8.55;;;3.58;;
64282;SDS011;50497;50.720;-2.084;2022-09-21T05:30:50;8.20;;;3.50;;
64282;SDS011;50497;50.720;-2.084;2022-09-21T05:33:21;8.80;;;3.50;;
64282;SDS011;50497;50.720;-2.084;2022-09-21T05:36:06;9.23;;;3.97;;
64282;SDS011;50497;50.720;-2.084;2022-09-21T05:38:47;9.15;;;3.40;;
64282;SDS011;50497;50.720;-2.084;2022-09-21T05:41:13;7.82;;;3.45;;
64282;SDS011;50497;50.720;-2.084;2022-09-21T05:43:39;10.52;;;3.70;;
64282;SDS011;50497;50.720;-2.084;2022-09-21T05:46:07;8.43;;;3.65;;
64282;SDS011;50497;50.720;-2.084;2022-09-21T05:48:42;9.30;;;4.10;;
64282;SDS011;50497;50.720;-2.084;2022-09-21T05:54:18;9.18;;;4.45;;
64282;SDS011;50497;50.720;-2.084;2022-09-21T05:56:57;9.48;;;4.20;;
64282;SDS011;50497;50.720;-2.084;2022-09-21T06:05:16;9.43;;;3.60;;
64282;SDS011;50497;50.720;-2.084;2022-09-21T06:07:42;10.88;;;4.43;;
64282;SDS011;50497;50.720;-2.084;2022-09-21T06:10:11;10.80;;;3.60;;
64282;SDS011;50497;50.720;-2.084;2022-09-21T06:12:37;8.57;;;3.70;;
64282;SDS011;50497;50.720;-2.084;2022-09-21T06:15:03;8.25;;;3.70;;
64282;SDS011;50497;50.720;-2.084;2022-09-21T06:17:31;7.97;;;3.60;;
64282;SDS011;50497;50.720;-2.084;2022-09-21T06:22:22;8.65;;;3.60;;
64282;SDS011;50497;50.720;-2.084;2022-09-21T06:24:47;8.27;;;3.83;;
64282;SDS011;50497;50.720;-2.084;2022-09-21T06:27:13;9.00;;;3.50;;
64282;SDS011;50497;50.720;-2.084;2022-09-21T06:29:38;10.98;;;4.07;;
64282;SDS011;50497;50.720;-2.084;2022-09-21T06:32:04;8.45;;;3.65;;
64282;SDS011;50497;50.720;-2.084;2022-09-21T06:34:30;8.15;;;3.80;;
64282;SDS011;50497;50.720;-2.084;2022-09-21T06:36:56;8.00;;;3.92;;
64282;SDS011;50497;50.720;-2.084;2022-09-21T06:39:22;8.50;;;3.92;;
64282;SDS011;50497;50.720;-2.084;2022-09-21T06:41:47;8.48;;;3.65;;
64282;SDS011;50497;50.720;-2.084;2022-09-21T06:44:13;7.60;;;3.75;;
64282;SDS011;50497;50.720;-2.084;2022-09-21T06:46:38;7.88;;;3.88;;
64282;SDS011;50497;50.720;-2.084;2022-09-21T06:49:04;9.43;;;4.22;;
64282;SDS011;50497;50.720;-2.084;2022-09-21T06:51:29;9.25;;;4.13;;
64282;SDS011;50497;50.720;-2.084;2022-09-21T06:53:55;8.63;;;4.00;;
64282;SDS011;50497;50.720;-2.084;2022-09-21T06:58:51;11.70;;;5.35;;
64282;SDS011;50497;50.720;-2.084;2022-09-21T07:01:18;11.27;;;4.78;;
64282;SDS011;50497;50.720;-2.084;2022-09-21T07:03:47;9.52;;;4.45;;
64282;SDS011;50497;50.720;-2.084;2022-09-21T07:06:13;8.95;;;4.20;;
64282;SDS011;50497;50.720;-2.084;2022-09-21T07:08:40;9.45;;;4.28;;
64282;SDS011;50497;50.720;-2.084;2022-09-21T07:13:32;8.98;;;3.90;;
64282;SDS011;50497;50.720;-2.084;2022-09-21T07:16:01;9.73;;;3.95;;
64282;SDS011;50497;50.720;-2.084;2022-09-21T07:18:28;9.80;;;4.25;;
64282;SDS011;50497;50.720;-2.084;2022-09-21T07:20:54;9.32;;;4.40;;
64282;SDS011;50497;50.720;-2.084;2022-09-21T07:23:19;10.98;;;4.72;;
64282;SDS011;50497;50.720;-2.084;2022-09-21T07:25:46;9.95;;;4.53;;
64282;SDS011;50497;50.720;-2.084;2022-09-21T07:28:14;10.00;;;4.32;;
64282;SDS011;50497;50.720;-2.084;2022-09-21T07:30:41;9.05;;;3.90;;
64282;SDS011;50497;50.720;-2.084;2022-09-21T07:33:07;11.27;;;5.15;;
64282;SDS011;50497;50.720;-2.084;2022-09-21T07:35:33;11.35;;;4.40;;
64282;SDS011;50497;50.720;-2.084;2022-09-21T07:38:00;9.40;;;4.32;;
64282;SDS011;50497;50.720;-2.084;2022-09-21T07:40:27;10.70;;;4.72;;
64282;SDS011;50497;50.720;-2.084;2022-09-21T07:42:56;10.48;;;4.68;;
64282;SDS011;50497;50.720;-2.084;2022-09-21T07:45:22;9.88;;;4.32;;
64282;SDS011;50497;50.720;-2.084;2022-09-21T07:47:48;10.90;;;4.82;;
64282;SDS011;50497;50.720;-2.084;2022-09-21T07:50:14;10.23;;;4.55;;
64282;SDS011;50497;50.720;-2.084;2022-09-21T07:52:40;10.15;;;4.68;;
64282;SDS011;50497;50.720;-2.084;2022-09-21T07:55:07;10.43;;;4.32;;
64282;SDS011;50497;50.720;-2.084;2022-09-21T07:57:32;8.52;;;4.05;;
64282;SDS011;50497;50.720;-2.084;2022-09-21T08:00:16;8.93;;;4.22;;
64282;SDS011;50497;50.720;-2.084;2022-09-21T08:02:42;8.88;;;4.43;;
64282;SDS011;50497;50.720;-2.084;2022-09-21T08:05:07;8.52;;;4.18;;
64282;SDS011;50497;50.720;-2.084;2022-09-21T08:07:33;10.88;;;4.47;;
64282;SDS011;50497;50.720;-2.084;2022-09-21T08:09:59;10.10;;;4.85;;
64282;SDS011;50497;50.720;-2.084;2022-09-21T08:12:24;9.25;;;4.50;;
64282;SDS011;50497;50.720;-2.084;2022-09-21T08:14:49;8.98;;;4.47;;
64282;SDS011;50497;50.720;-2.084;2022-09-21T08:17:16;10.07;;;4.68;;
64282;SDS011;50497;50.720;-2.084;2022-09-21T08:19:42;11.48;;;5.88;;
64282;SDS011;50497;50.720;-2.084;2022-09-21T08:22:07;9.95;;;5.07;;
64282;SDS011;50497;50.720;-2.084;2022-09-21T08:24:33;11.57;;;4.72;;
64282;SDS011;50497;50.720;-2.084;2022-09-21T08:27:01;10.80;;;5.13;;
64282;SDS011;50497;50.720;-2.084;2022-09-21T08:29:26;10.40;;;5.00;;
64282;SDS011;50497;50.720;-2.084;2022-09-21T08:31:53;8.60;;;4.05;;
64282;SDS011;50497;50.720;-2.084;2022-09-21T08:34:18;8.70;;;3.53;;
64282;SDS011;50497;50.720;-2.084;2022-09-21T08:36:45;7.47;;;3.63;;
64282;SDS011;50497;50.720;-2.084;2022-09-21T08:39:10;8.18;;;3.88;;
64282;SDS011;50497;50.720;-2.084;2022-09-21T08:47:14;7.07;;;3.28;;
64282;SDS011;50497;50.720;-2.084;2022-09-21T08:49:56;9.52;;;4.32;;
64282;SDS011;50497;50.720;-2.084;2022-09-21T08:52:24;8.75;;;4.30;;
64282;SDS011;50497;50.720;-2.084;2022-09-21T08:54:53;10.07;;;5.40;;
64282;SDS011;50497;50.720;-2.084;2022-09-21T08:57:25;11.60;;;5.47;;
64282;SDS011;50497;50.720;-2.084;2022-09-21T08:59:54;11.52;;;4.90;;
64282;SDS011;50497;50.720;-2.084;2022-09-21T09:04:48;9.10;;;4.30;;
64282;SDS011;50497;50.720;-2.084;2022-09-21T09:10:06;10.45;;;5.05;;
64282;SDS011;50497;50.720;-2.084;2022-09-21T09:12:55;8.32;;;4.35;;
64282;SDS011;50497;50.720;-2.084;2022-09-21T09:18:13;10.60;;;5.25;;
64282;SDS011;50497;50.720;-2.084;2022-09-21T09:20:56;9.05;;;3.85;;
64282;SDS011;50497;50.720;-2.084;2022-09-21T09:23:28;9.52;;;3.97;;
64282;SDS011;50497;50.720;-2.084;2022-09-21T09:26:00;7.07;;;3.92;;
64282;SDS011;50497;50.720;-2.084;2022-09-21T09:28:37;8.07;;;3.72;;
64282;SDS011;50497;50.720;-2.084;2022-09-21T09:31:16;8.90;;;3.60;;
64282;SDS011;50497;50.720;-2.084;2022-09-21T09:33:52;6.40;;;2.88;;
64282;SDS011;50497;50.720;-2.084;2022-09-21T09:36:26;5.47;;;2.95;;
64282;SDS011;50497;50.720;-2.084;2022-09-21T09:38:56;7.05;;;3.13;;
64282;SDS011;50497;50.720;-2.084;2022-09-21T09:52:52;5.30;;;2.65;;
64282;SDS011;50497;50.720;-2.084;2022-09-21T09:55:38;5.57;;;2.38;;
64282;SDS011;50497;50.720;-2.084;2022-09-21T09:58:11;5.32;;;2.47;;
64282;SDS011;50497;50.720;-2.084;2022-09-21T10:03:16;6.22;;;2.38;;
64282;SDS011;50497;50.720;-2.084;2022-09-21T10:05:43;4.80;;;2.30;;
64282;SDS011;50497;50.720;-2.084;2022-09-21T10:08:26;5.35;;;2.60;;
64282;SDS011;50497;50.720;-2.084;2022-09-21T10:11:00;7.53;;;2.22;;
64282;SDS011;50497;50.720;-2.084;2022-09-21T10:13:30;4.30;;;2.20;;
64282;SDS011;50497;50.720;-2.084;2022-09-21T10:16:19;4.93;;;2.17;;
64282;SDS011;50497;50.720;-2.084;2022-09-21T10:18:49;5.30;;;2.70;;
64282;SDS011;50497;50.720;-2.084;2022-09-21T10:23:49;5.93;;;2.65;;
64282;SDS011;50497;50.720;-2.084;2022-09-21T10:26:30;5.78;;;2.90;;
64282;SDS011;50497;50.720;-2.084;2022-09-21T10:29:21;5.10;;;2.58;;
64282;SDS011;50497;50.720;-2.084;2022-09-21T10:34:58;4.38;;;2.30;;
64282;SDS011;50497;50.720;-2.084;2022-09-21T10:37:41;5.07;;;2.35;;
64282;SDS011;50497;50.720;-2.084;2022-09-21T10:40:41;4.82;;;2.53;;
64282;SDS011;50497;50.720;-2.084;2022-09-21T10:43:01;4.95;;;2.20;;
64282;SDS011;50497;50.720;-2.084;2022-09-21T10:45:30;6.22;;;2.30;;
64282;SDS011;50497;50.720;-2.084;2022-09-21T10:50:37;5.15;;;2.10;;
64282;SDS011;50497;50.720;-2.084;2022-09-21T10:55:32;4.10;;;2.00;;
64282;SDS011;50497;50.720;-2.084;2022-09-21T10:58:02;4.65;;;2.00;;
64282;SDS011;50497;50.720;-2.084;2022-09-21T11:00:39;4.05;;;2.05;;
64282;SDS011;50497;50.720;-2.084;2022-09-21T11:06:14;4.35;;;1.85;;
64282;SDS011;50497;50.720;-2.084;2022-09-21T11:09:23;3.88;;;1.85;;
64282;SDS011;50497;50.720;-2.084;2022-09-21T11:14:48;4.72;;;1.77;;
64282;SDS011;50497;50.720;-2.084;2022-09-21T11:20:18;4.05;;;1.80;;
64282;SDS011;50497;50.720;-2.084;2022-09-21T11:25:35;4.63;;;1.65;;
64282;SDS011;50497;50.720;-2.084;2022-09-21T11:52:35;5.00;;;1.80;;
64282;SDS011;50497;50.720;-2.084;2022-09-21T11:55:17;3.60;;;1.60;;
64282;SDS011;50497;50.720;-2.084;2022-09-21T12:03:36;5.18;;;1.90;;
64282;SDS011;50497;50.720;-2.084;2022-09-21T12:06:51;4.65;;;1.70;;
64282;SDS011;50497;50.720;-2.084;2022-09-21T12:09:45;3.80;;;1.88;;
64282;SDS011;50497;50.720;-2.084;2022-09-21T12:15:16;3.78;;;1.67;;
64282;SDS011;50497;50.720;-2.084;2022-09-21T12:26:18;5.00;;;2.00;;
64282;SDS011;50497;50.720;-2.084;2022-09-21T12:28:52;3.47;;;1.70;;
64282;SDS011;50497;50.720;-2.084;2022-09-21T12:31:38;4.13;;;1.90;;
64282;SDS011;50497;50.720;-2.084;2022-09-21T12:34:21;3.53;;;1.85;;
64282;SDS011;50497;50.720;-2.084;2022-09-21T12:36:58;4.40;;;2.10;;
64282;SDS011;50497;50.720;-2.084;2022-09-21T12:39:28;4.07;;;2.00;;
64282;SDS011;50497;50.720;-2.084;2022-09-21T12:47:42;5.13;;;1.90;;
64282;SDS011;50497;50.720;-2.084;2022-09-21T12:50:55;3.97;;;1.90;;
64282;SDS011;50497;50.720;-2.084;2022-09-21T12:53:14;4.80;;;2.15;;
64282;SDS011;50497;50.720;-2.084;2022-09-21T13:01:18;4.15;;;1.95;;
64282;SDS011;50497;50.720;-2.084;2022-09-21T13:09:21;4.60;;;2.22;;
64282;SDS011;50497;50.720;-2.084;2022-09-21T13:11:57;4.93;;;2.10;;
64282;SDS011;50497;50.720;-2.084;2022-09-21T13:14:32;5.60;;;2.03;;
64282;SDS011;50497;50.720;-2.084;2022-09-21T13:17:02;4.38;;;2.10;;
64282;SDS011;50497;50.720;-2.084;2022-09-21T13:19:30;5.00;;;2.00;;
64282;SDS011;50497;50.720;-2.084;2022-09-21T13:25:06;3.83;;;1.95;;
64282;SDS011;50497;50.720;-2.084;2022-09-21T13:27:57;4.40;;;2.20;;
64282;SDS011;50497;50.720;-2.084;2022-09-21T13:30:30;3.90;;;2.00;;
64282;SDS011;50497;50.720;-2.084;2022-09-21T13:38:24;5.43;;;2.15;;
64282;SDS011;50497;50.720;-2.084;2022-09-21T13:43:47;4.90;;;2.03;;
64282;SDS011;50497;50.720;-2.084;2022-09-21T13:51:51;5.70;;;2.20;;
64282;SDS011;50497;50.720;-2.084;2022-09-21T13:54:32;4.95;;;2.42;;
64282;SDS011;50497;50.720;-2.084;2022-09-21T13:59:30;4.95;;;2.30;;
64282;SDS011;50497;50.720;-2.084;2022-09-21T14:01:58;5.35;;;2.35;;
64282;SDS011;50497;50.720;-2.084;2022-09-21T14:04:30;4.70;;;2.25;;
64282;SDS011;50497;50.720;-2.084;2022-09-21T14:07:04;5.93;;;2.55;;
64282;SDS011;50497;50.720;-2.084;2022-09-21T14:09:53;5.53;;;2.22;;
64282;SDS011;50497;50.720;-2.084;2022-09-21T14:12:24;5.10;;;2.40;;
64282;SDS011;50497;50.720;-2.084;2022-09-21T14:15:07;4.50;;;2.17;;
64282;SDS011;50497;50.720;-2.084;2022-09-21T14:17:44;4.80;;;2.25;;
64282;SDS011;50497;50.720;-2.084;2022-09-21T14:20:43;5.07;;;2.38;;
64282;SDS011;50497;50.720;-2.084;2022-09-21T14:25:53;5.90;;;2.50;;
64282;SDS011;50497;50.720;-2.084;2022-09-21T14:28:26;5.13;;;2.40;;
64282;SDS011;50497;50.720;-2.084;2022-09-21T14:31:23;5.10;;;2.30;;
64282;SDS011;50497;50.720;-2.084;2022-09-21T14:33:49;5.45;;;2.30;;
64282;SDS011;50497;50.720;-2.084;2022-09-21T14:36:21;4.80;;;2.50;;
64282;SDS011;50497;50.720;-2.084;2022-09-21T14:38:53;4.88;;;2.38;;
64282;SDS011;50497;50.720;-2.084;2022-09-21T14:41:24;5.18;;;2.33;;
64282;SDS011;50497;50.720;-2.084;2022-09-21T14:43:56;5.63;;;2.30;;
64282;SDS011;50497;50.720;-2.084;2022-09-21T14:46:31;4.60;;;2.10;;
64282;SDS011;50497;50.720;-2.084;2022-09-21T15:00:34;5.60;;;2.25;;
64282;SDS011;50497;50.720;-2.084;2022-09-21T15:05:35;5.55;;;2.33;;
64282;SDS011;50497;50.720;-2.084;2022-09-21T15:11:15;4.53;;;2.33;;
64282;SDS011;50497;50.720;-2.084;2022-09-21T15:19:20;6.35;;;2.10;;
64282;SDS011;50497;50.720;-2.084;2022-09-21T15:21:54;5.50;;;2.38;;
64282;SDS011;50497;50.720;-2.084;2022-09-21T15:24:33;6.30;;;2.72;;
64282;SDS011;50497;50.720;-2.084;2022-09-21T15:27:07;5.03;;;2.35;;
64282;SDS011;50497;50.720;-2.084;2022-09-21T15:29:38;5.10;;;2.30;;
64282;SDS011;50497;50.720;-2.084;2022-09-21T15:34:55;5.68;;;2.10;;
64282;SDS011;50497;50.720;-2.084;2022-09-21T15:37:26;5.70;;;2.70;;
64282;SDS011;50497;50.720;-2.084;2022-09-21T15:40:03;5.47;;;2.30;;
64282;SDS011;50497;50.720;-2.084;2022-09-21T15:42:33;4.15;;;2.10;;
64282;SDS011;50497;50.720;-2.084;2022-09-21T15:45:14;5.03;;;2.00;;
64282;SDS011;50497;50.720;-2.084;2022-09-21T15:47:42;4.47;;;2.17;;
64282;SDS011;50497;50.720;-2.084;2022-09-21T15:50:15;5.43;;;2.50;;
64282;SDS011;50497;50.720;-2.084;2022-09-21T15:52:44;4.57;;;2.17;;
64282;SDS011;50497;50.720;-2.084;2022-09-21T15:55:20;4.40;;;2.28;;
64282;SDS011;50497;50.720;-2.084;2022-09-21T15:57:47;5.72;;;2.30;;
64282;SDS011;50497;50.720;-2.084;2022-09-21T16:02:41;5.63;;;2.47;;
64282;SDS011;50497;50.720;-2.084;2022-09-21T16:05:20;5.97;;;2.30;;
64282;SDS011;50497;50.720;-2.084;2022-09-21T16:07:46;5.10;;;2.00;;
64282;SDS011;50497;50.720;-2.084;2022-09-21T16:12:58;4.70;;;2.10;;
64282;SDS011;50497;50.720;-2.084;2022-09-21T16:15:58;4.60;;;2.13;;
64282;SDS011;50497;50.720;-2.084;2022-09-21T16:18:28;5.15;;;2.10;;
64282;SDS011;50497;50.720;-2.084;2022-09-21T16:21:08;4.93;;;2.30;;
64282;SDS011;50497;50.720;-2.084;2022-09-21T16:23:45;4.82;;;2.25;;
64282;SDS011;50497;50.720;-2.084;2022-09-21T16:26:19;5.55;;;2.05;;
64282;SDS011;50497;50.720;-2.084;2022-09-21T16:28:45;5.80;;;2.45;;
64282;SDS011;50497;50.720;-2.084;2022-09-21T16:41:12;5.22;;;2.15;;
64282;SDS011;50497;50.720;-2.084;2022-09-21T16:43:38;5.85;;;2.45;;
64282;SDS011;50497;50.720;-2.084;2022-09-21T16:46:07;5.25;;;2.10;;
64282;SDS011;50497;50.720;-2.084;2022-09-21T16:50:58;4.75;;;2.20;;
64282;SDS011;50497;50.720;-2.084;2022-09-21T16:55:50;6.90;;;3.20;;
64282;SDS011;50497;50.720;-2.084;2022-09-21T16:58:17;5.30;;;2.50;;
64282;SDS011;50497;50.720;-2.084;2022-09-21T17:00:47;5.45;;;2.63;;
64282;SDS011;50497;50.720;-2.084;2022-09-21T17:03:17;6.22;;;2.80;;
64282;SDS011;50497;50.720;-2.084;2022-09-21T17:08:08;5.10;;;2.78;;
64282;SDS011;50497;50.720;-2.084;2022-09-21T17:10:39;5.38;;;2.45;;
64282;SDS011;50497;50.720;-2.084;2022-09-21T17:13:07;5.32;;;2.78;;
64282;SDS011;50497;50.720;-2.084;2022-09-21T17:15:33;5.95;;;3.03;;
64282;SDS011;50497;50.720;-2.084;2022-09-21T17:18:03;4.57;;;2.17;;
64282;SDS011;50497;50.720;-2.084;2022-09-21T17:20:35;6.30;;;3.10;;
64282;SDS011;50497;50.720;-2.084;2022-09-21T17:23:03;6.53;;;3.00;;
64282;SDS011;50497;50.720;-2.084;2022-09-21T17:25:29;6.50;;;3.35;;
64282;SDS011;50497;50.720;-2.084;2022-09-21T17:27:56;6.00;;;3.20;;
64282;SDS011;50497;50.720;-2.084;2022-09-21T17:30:22;7.22;;;3.10;;
64282;SDS011;50497;50.720;-2.084;2022-09-21T17:32:49;6.25;;;3.20;;
64282;SDS011;50497;50.720;-2.084;2022-09-21T17:35:28;6.25;;;3.10;;
64282;SDS011;50497;50.720;-2.084;2022-09-21T17:37:57;6.55;;;3.10;;
64282;SDS011;50497;50.720;-2.084;2022-09-21T17:40:23;6.80;;;3.30;;
64282;SDS011;50497;50.720;-2.084;2022-09-21T17:47:49;6.50;;;3.05;;
64282;SDS011;50497;50.720;-2.084;2022-09-21T17:50:25;6.15;;;3.10;;
64282;SDS011;50497;50.720;-2.084;2022-09-21T17:52:52;6.00;;;3.13;;
64282;SDS011;50497;50.720;-2.084;2022-09-21T17:55:41;6.13;;;3.17;;
64282;SDS011;50497;50.720;-2.084;2022-09-21T18:01:15;5.70;;;3.00;;
64282;SDS011;50497;50.720;-2.084;2022-09-21T18:04:08;6.20;;;3.00;;
64282;SDS011;50497;50.720;-2.084;2022-09-21T18:06:38;6.13;;;3.13;;
64282;SDS011;50497;50.720;-2.084;2022-09-21T18:09:08;6.15;;;2.92;;
64282;SDS011;50497;50.720;-2.084;2022-09-21T18:25:26;5.80;;;3.10;;
64282;SDS011;50497;50.720;-2.084;2022-09-21T18:27:56;6.97;;;3.08;;
64282;SDS011;50497;50.720;-2.084;2022-09-21T18:30:23;6.63;;;3.28;;
64282;SDS011;50497;50.720;-2.084;2022-09-21T18:42:23;6.70;;;3.22;;
64282;SDS011;50497;50.720;-2.084;2022-09-21T18:45:08;7.00;;;3.30;;
64282;SDS011;50497;50.720;-2.084;2022-09-21T18:47:48;7.32;;;3.13;;
64282;SDS011;50497;50.720;-2.084;2022-09-21T18:53:19;6.28;;;3.13;;
64282;SDS011;50497;50.720;-2.084;2022-09-21T18:55:50;6.63;;;3.45;;
64282;SDS011;50497;50.720;-2.084;2022-09-21T18:58:17;6.97;;;3.40;;
64282;SDS011;50497;50.720;-2.084;2022-09-21T19:00:44;6.93;;;3.20;;
64282;SDS011;50497;50.720;-2.084;2022-09-21T19:03:13;7.35;;;3.40;;
64282;SDS011;50497;50.720;-2.084;2022-09-21T19:05:46;6.72;;;3.03;;
64282;SDS011;50497;50.720;-2.084;2022-09-21T19:08:36;6.95;;;3.20;;
64282;SDS011;50497;50.720;-2.084;2022-09-21T19:23:02;6.38;;;3.45;;
64282;SDS011;50497;50.720;-2.084;2022-09-21T19:25:50;7.38;;;3.95;;
64282;SDS011;50497;50.720;-2.084;2022-09-21T19:31:01;8.32;;;3.65;;